createdAt,value
2018-05-10T00:00:42.418Z,43.70
2018-05-10T00:01:42.378Z,42.30
2018-05-10T00:02:42.339Z,45.50
2018-05-10T00:03:42.306Z,46.50
2018-05-10T00:04:42.266Z,46.00
2018-05-10T00:05:42.220Z,47.40
2018-05-10T00:06:42.182Z,48.30
2018-05-10T00:07:42.142Z,47.90
2018-05-10T00:08:42.104Z,49.00
2018-05-10T00:09:42.064Z,50.10
2018-05-10T00:10:42.024Z,51.20
2018-05-10T00:11:41.990Z,50.70
2018-05-10T00:12:41.948Z,50.80
2018-05-10T00:13:41.907Z,51.10
2018-05-10T00:14:41.868Z,51.90
2018-05-10T00:15:41.832Z,52.90
2018-05-10T00:16:41.791Z,52.10
2018-05-10T00:17:41.750Z,52.40
2018-05-10T00:18:41.712Z,52.60
2018-05-10T00:19:41.671Z,52.10
2018-05-10T00:20:41.634Z,50.60
2018-05-10T00:21:41.592Z,52.10
2018-05-10T00:22:41.553Z,52.80
2018-05-10T00:23:41.516Z,54.10
2018-05-10T00:24:41.476Z,52.70
2018-05-10T00:25:41.436Z,53.00
2018-05-10T00:26:41.396Z,53.00
2018-05-10T00:27:41.355Z,54.40
2018-05-10T00:28:41.316Z,52.10
2018-05-10T00:29:41.276Z,54.10
2018-05-10T00:30:41.238Z,53.50
2018-05-10T00:31:41.197Z,53.60
2018-05-10T00:32:41.160Z,52.50
2018-05-10T00:33:41.118Z,52.30
2018-05-10T00:34:41.081Z,52.40
2018-05-10T00:35:41.123Z,54.10
2018-05-10T00:36:41.001Z,53.10
2018-05-10T00:37:40.960Z,52.70
2018-05-10T00:38:40.921Z,53.70
2018-05-10T00:39:40.881Z,53.30
2018-05-10T00:40:40.843Z,51.70
2018-05-10T00:41:40.804Z,53.20
2018-05-10T00:42:40.767Z,52.20
2018-05-10T00:43:40.725Z,51.90
2018-05-10T00:44:40.684Z,52.30
2018-05-10T00:45:40.643Z,51.90
2018-05-10T00:46:40.605Z,53.40
2018-05-10T00:47:40.568Z,50.80
2018-05-10T00:48:40.525Z,51.90
2018-05-10T00:49:40.486Z,51.70
2018-05-10T00:50:40.448Z,51.10
2018-05-10T00:51:40.409Z,50.20
2018-05-10T00:52:40.368Z,50.00
2018-05-10T00:53:40.326Z,49.80
2018-05-10T00:54:40.291Z,50.30
2018-05-10T00:55:40.248Z,50.90
2018-05-10T00:56:40.212Z,51.00
2018-05-10T00:57:40.172Z,48.70
2018-05-10T00:58:40.128Z,49.20
2018-05-10T00:59:40.089Z,47.90
2018-05-10T01:00:40.053Z,49.30
2018-05-10T01:01:40.017Z,48.80
2018-05-10T01:02:39.979Z,48.10
2018-05-10T01:03:39.930Z,47.70
2018-05-10T01:04:39.892Z,47.80
2018-05-10T01:05:39.852Z,47.50
2018-05-10T01:06:39.815Z,49.00
2018-05-10T01:07:39.772Z,48.30
2018-05-10T01:08:39.733Z,47.00
2018-05-10T01:09:39.694Z,47.60
2018-05-10T01:10:39.651Z,48.20
2018-05-10T01:11:39.610Z,47.60
2018-05-10T01:12:39.576Z,47.20
2018-05-10T01:13:39.534Z,46.00
2018-05-10T01:14:39.493Z,48.50
2018-05-10T01:15:39.451Z,47.00
2018-05-10T01:16:39.411Z,46.80
2018-05-10T01:17:39.375Z,46.40
2018-05-10T01:18:39.334Z,46.00
2018-05-10T01:19:39.294Z,47.20
2018-05-10T01:20:39.252Z,46.10
2018-05-10T01:21:39.216Z,45.60
2018-05-10T01:22:39.175Z,45.30
2018-05-10T01:23:39.138Z,44.00
2018-05-10T01:24:39.094Z,43.00
2018-05-10T01:25:39.057Z,41.60
2018-05-10T01:26:39.014Z,41.80
2018-05-10T01:27:38.974Z,41.30
2018-05-10T01:28:38.938Z,41.80
2018-05-10T01:29:38.895Z,42.10
2018-05-10T01:30:38.857Z,42.00
2018-05-10T01:31:38.817Z,40.40
2018-05-10T01:32:38.778Z,42.20
2018-05-10T01:33:38.736Z,40.80
2018-05-10T01:34:38.698Z,40.20
2018-05-10T01:35:38.657Z,42.50
2018-05-10T01:36:38.619Z,40.20
2018-05-10T01:37:38.574Z,41.20
2018-05-10T01:38:38.534Z,40.10
2018-05-10T01:39:38.494Z,39.90
2018-05-10T01:40:38.454Z,38.60
2018-05-10T01:41:38.417Z,39.70
2018-05-10T01:42:38.374Z,40.00
2018-05-10T01:43:38.338Z,38.90
2018-05-10T01:44:38.294Z,38.90
2018-05-10T01:45:38.254Z,38.90
2018-05-10T01:46:38.217Z,39.10
2018-05-10T01:47:38.176Z,39.00
2018-05-10T01:48:38.133Z,38.90
2018-05-10T01:49:38.097Z,38.50
2018-05-10T01:50:38.055Z,38.30
2018-05-10T01:51:38.017Z,37.40
2018-05-10T01:52:37.977Z,38.50
2018-05-10T01:53:37.937Z,37.20
2018-05-10T01:54:37.896Z,37.30
2018-05-10T01:55:37.857Z,37.50
2018-05-10T01:56:37.816Z,37.60
2018-05-10T01:57:37.778Z,38.00
2018-05-10T01:58:37.738Z,36.70
2018-05-10T01:59:37.694Z,35.60
2018-05-10T02:00:37.653Z,35.80
2018-05-10T02:01:37.614Z,35.40
2018-05-10T02:02:37.572Z,36.30
2018-05-10T02:03:37.533Z,35.90
2018-05-10T02:04:37.497Z,36.10
2018-05-10T02:05:37.455Z,35.70
2018-05-10T02:06:37.415Z,36.10
2018-05-10T02:07:37.370Z,34.70
2018-05-10T02:08:37.333Z,34.30
2018-05-10T02:09:37.293Z,34.80
2018-05-10T02:10:37.253Z,35.30
2018-05-10T02:11:37.213Z,34.30
2018-05-10T02:12:37.171Z,34.20
2018-05-10T02:13:37.130Z,34.70
2018-05-10T02:14:37.136Z,34.20
2018-05-10T02:15:37.048Z,34.30
2018-05-10T02:16:37.009Z,33.20
2018-05-10T02:17:36.968Z,33.30
2018-05-10T02:18:36.929Z,33.80
2018-05-10T02:19:36.892Z,33.50
2018-05-10T02:20:36.849Z,32.80
2018-05-10T02:21:36.810Z,34.10
2018-05-10T02:22:36.773Z,32.10
2018-05-10T02:23:36.726Z,33.00
2018-05-10T02:24:36.685Z,31.70
2018-05-10T02:25:36.647Z,30.90
2018-05-10T02:26:36.606Z,32.10
2018-05-10T02:27:36.566Z,32.20
2018-05-10T02:28:36.533Z,31.50
2018-05-10T02:29:36.484Z,30.60
2018-05-10T02:30:36.445Z,30.80
2018-05-10T02:31:36.403Z,29.90
2018-05-10T02:32:36.370Z,30.80
2018-05-10T02:33:36.321Z,31.30
2018-05-10T02:34:36.281Z,31.30
2018-05-10T02:35:36.242Z,31.70
2018-05-10T02:36:36.204Z,30.70
2018-05-10T02:37:36.159Z,29.50
2018-05-10T02:38:36.121Z,30.20
2018-05-10T02:39:36.080Z,30.20
2018-05-10T02:40:36.043Z,30.80
2018-05-10T02:41:36.002Z,28.80
2018-05-10T02:42:35.957Z,29.90
2018-05-10T02:43:35.930Z,29.50
2018-05-10T02:44:35.882Z,30.50
2018-05-10T02:45:35.835Z,28.10
2018-05-10T02:46:35.800Z,27.90
2018-05-10T02:47:35.753Z,28.30
2018-05-10T02:48:35.715Z,27.70
2018-05-10T02:49:35.677Z,25.80
2018-05-10T02:50:35.641Z,26.30
2018-05-10T02:51:35.595Z,26.40
2018-05-10T02:52:35.554Z,23.50
2018-05-10T02:53:35.516Z,23.20
2018-05-10T02:54:35.470Z,23.80
2018-05-10T02:55:35.431Z,23.30
2018-05-10T02:56:35.391Z,22.80
2018-05-10T02:57:35.350Z,22.00
2018-05-10T02:58:35.308Z,21.50
2018-05-10T02:59:35.268Z,21.00
2018-05-10T03:00:35.235Z,21.10
2018-05-10T03:01:35.185Z,20.90
2018-05-10T03:02:35.149Z,21.00
2018-05-10T03:03:35.115Z,21.40
2018-05-10T03:04:35.065Z,21.60
2018-05-10T03:05:35.023Z,21.70
2018-05-10T03:06:34.986Z,21.70
2018-05-10T03:07:34.955Z,20.70
2018-05-10T03:08:34.902Z,20.90
2018-05-10T03:09:34.859Z,21.00
2018-05-10T03:10:34.817Z,20.80
2018-05-10T03:11:34.782Z,21.40
2018-05-10T03:12:34.743Z,20.90
2018-05-10T03:13:34.696Z,21.10
2018-05-10T03:14:34.653Z,21.30
2018-05-10T03:15:34.615Z,21.40
2018-05-10T03:16:34.576Z,20.20
2018-05-10T03:17:34.536Z,21.40
2018-05-10T03:18:34.499Z,21.50
2018-05-10T03:19:34.451Z,21.40
2018-05-10T03:20:34.414Z,21.00
2018-05-10T03:21:34.372Z,20.90
2018-05-10T03:22:34.327Z,20.90
2018-05-10T03:23:34.284Z,20.00
2018-05-10T03:24:34.250Z,21.10
2018-05-10T03:25:34.205Z,20.80
2018-05-10T03:26:34.163Z,19.90
2018-05-10T03:27:34.124Z,19.70
2018-05-10T03:28:34.083Z,20.00
2018-05-10T03:29:34.042Z,20.20
2018-05-10T03:30:34.002Z,20.10
2018-05-10T03:31:33.959Z,20.10
2018-05-10T03:32:33.919Z,19.30
2018-05-10T03:33:33.880Z,19.50
2018-05-10T03:34:33.835Z,20.00
2018-05-10T03:35:33.796Z,19.70
2018-05-10T03:36:33.753Z,18.90
2018-05-10T03:37:33.714Z,20.20
2018-05-10T03:38:33.672Z,19.90
2018-05-10T03:39:33.633Z,20.10
2018-05-10T03:40:33.606Z,19.20
2018-05-10T03:41:33.549Z,20.20
2018-05-10T03:42:33.517Z,19.80
2018-05-10T03:43:33.467Z,20.80
2018-05-10T03:44:33.428Z,20.70
2018-05-10T03:45:33.385Z,20.10
2018-05-10T03:46:33.344Z,20.10
2018-05-10T03:47:33.301Z,19.50
2018-05-10T03:48:33.260Z,20.00
2018-05-10T03:49:33.218Z,19.70
2018-05-10T03:50:33.178Z,20.30
2018-05-10T03:51:33.137Z,21.00
2018-05-10T03:52:33.096Z,21.20
2018-05-10T03:53:33.058Z,22.10
2018-05-10T03:54:33.016Z,20.50
2018-05-10T03:55:32.973Z,22.10
2018-05-10T03:56:32.932Z,21.60
2018-05-10T03:57:32.893Z,21.60
2018-05-10T03:58:32.853Z,22.40
2018-05-10T03:59:32.805Z,22.00
2018-05-10T04:00:32.768Z,22.50
2018-05-10T04:01:32.725Z,22.20
2018-05-10T04:02:32.684Z,23.00
2018-05-10T04:03:32.640Z,22.80
2018-05-10T04:04:32.605Z,22.80
2018-05-10T04:05:32.562Z,22.70
2018-05-10T04:06:32.520Z,23.10
2018-05-10T04:07:32.476Z,24.50
2018-05-10T04:08:32.438Z,23.40
2018-05-10T04:09:32.398Z,23.70
2018-05-10T04:10:32.352Z,23.70
2018-05-10T04:11:32.313Z,23.50
2018-05-10T04:12:32.270Z,24.20
2018-05-10T04:13:32.233Z,23.50
2018-05-10T04:14:32.189Z,24.10
2018-05-10T04:15:32.189Z,23.10
2018-05-10T04:16:32.105Z,23.60
2018-05-10T04:17:32.065Z,23.10
2018-05-10T04:18:32.024Z,24.10
2018-05-10T04:19:31.981Z,24.00
2018-05-10T04:20:31.939Z,23.50
2018-05-10T04:21:31.898Z,24.50
2018-05-10T04:22:31.861Z,24.20
2018-05-10T04:23:31.818Z,23.60
2018-05-10T04:24:31.774Z,24.20
2018-05-10T04:25:31.735Z,24.60
2018-05-10T04:26:31.693Z,24.60
2018-05-10T04:27:31.649Z,25.30
2018-05-10T04:28:31.608Z,24.80
2018-05-10T04:29:31.569Z,25.00
2018-05-10T04:30:31.528Z,26.50
2018-05-10T04:31:31.485Z,24.80
2018-05-10T04:32:31.441Z,25.00
2018-05-10T04:33:31.405Z,25.50
2018-05-10T04:34:31.364Z,25.60
2018-05-10T04:35:31.318Z,25.90
2018-05-10T04:36:31.280Z,25.80
2018-05-10T04:37:31.237Z,25.10
2018-05-10T04:38:31.202Z,25.40
2018-05-10T04:39:31.164Z,25.10
2018-05-10T04:40:31.122Z,25.70
2018-05-10T04:41:31.071Z,25.10
2018-05-10T04:42:31.031Z,25.80
2018-05-10T04:43:30.991Z,25.80
2018-05-10T04:44:30.949Z,26.30
2018-05-10T04:45:30.908Z,27.20
2018-05-10T04:46:30.864Z,25.60
2018-05-10T04:47:30.823Z,25.70
2018-05-10T04:48:30.785Z,25.60
2018-05-10T04:49:30.740Z,25.70
2018-05-10T04:50:30.704Z,25.40
2018-05-10T04:51:30.656Z,25.30
2018-05-10T04:52:30.619Z,25.40
2018-05-10T04:53:30.574Z,25.20
2018-05-10T04:54:30.532Z,24.40
2018-05-10T04:55:30.489Z,24.60
2018-05-10T04:56:30.448Z,24.50
2018-05-10T04:57:30.408Z,24.00
2018-05-10T04:58:30.366Z,23.80
2018-05-10T04:59:30.322Z,23.20
2018-05-10T05:00:30.286Z,23.20
2018-05-10T05:01:30.244Z,23.50
2018-05-10T05:02:30.203Z,24.10
2018-05-10T05:03:30.180Z,23.50
2018-05-10T05:04:30.122Z,24.30
2018-05-10T05:05:30.076Z,23.30
2018-05-10T05:06:30.039Z,23.60
2018-05-10T05:07:29.996Z,23.90
2018-05-10T05:08:29.953Z,22.80
2018-05-10T05:09:29.909Z,23.70
2018-05-10T05:10:29.870Z,23.80
2018-05-10T05:11:29.836Z,23.40
2018-05-10T05:12:29.785Z,23.40
2018-05-10T05:13:29.744Z,24.20
2018-05-10T05:14:29.705Z,23.80
2018-05-10T05:15:29.663Z,23.70
2018-05-10T05:16:29.618Z,23.90
2018-05-10T05:17:29.577Z,24.10
2018-05-10T05:18:29.537Z,24.00
2018-05-10T05:19:29.495Z,23.50
2018-05-10T05:20:29.454Z,23.20
2018-05-10T05:21:29.465Z,23.50
2018-05-10T05:22:29.373Z,24.40
2018-05-10T05:23:29.332Z,24.10
2018-05-10T05:24:29.286Z,23.70
2018-05-10T05:25:29.244Z,25.80
2018-05-10T05:26:29.205Z,25.40
2018-05-10T05:27:29.162Z,25.70
2018-05-10T05:28:29.123Z,25.90
2018-05-10T05:29:29.083Z,25.60
2018-05-10T05:30:29.042Z,25.30
2018-05-10T05:31:28.995Z,25.10
2018-05-10T05:32:28.956Z,25.00
2018-05-10T05:33:28.914Z,25.50
2018-05-10T05:34:28.871Z,24.50
2018-05-10T05:35:28.919Z,24.90
2018-05-10T05:36:28.806Z,25.30
2018-05-10T05:37:28.751Z,24.90
2018-05-10T05:38:28.707Z,25.60
2018-05-10T05:39:28.669Z,25.10
2018-05-10T05:40:28.628Z,25.50
2018-05-10T05:41:28.716Z,25.50
2018-05-10T05:42:28.542Z,25.90
2018-05-10T05:43:28.560Z,27.10
2018-05-10T05:44:28.460Z,26.80
2018-05-10T05:45:28.423Z,27.40
2018-05-10T05:46:28.377Z,26.90
2018-05-10T05:47:28.332Z,27.80
2018-05-10T05:48:28.292Z,27.10
2018-05-10T05:49:28.254Z,27.50
2018-05-10T05:50:28.212Z,27.70
2018-05-10T05:51:28.166Z,26.90
2018-05-10T05:52:28.130Z,26.60
2018-05-10T05:53:28.086Z,27.10
2018-05-10T05:54:28.043Z,26.10
2018-05-10T05:55:28.001Z,26.40
2018-05-10T05:56:27.963Z,26.40
2018-05-10T05:57:27.919Z,26.20
2018-05-10T05:58:27.884Z,25.50
2018-05-10T05:59:27.835Z,26.30
2018-05-10T06:00:27.799Z,26.90
2018-05-10T06:01:27.752Z,26.30
2018-05-10T06:02:27.716Z,27.50
2018-05-10T06:03:27.674Z,25.40
2018-05-10T06:04:27.629Z,25.70
2018-05-10T06:05:27.589Z,24.60
2018-05-10T06:06:27.548Z,25.90
2018-05-10T06:07:27.502Z,25.90
2018-05-10T06:08:27.460Z,25.10
2018-05-10T06:09:27.422Z,25.80
2018-05-10T06:10:27.378Z,24.90
2018-05-10T06:11:27.337Z,24.70
2018-05-10T06:12:27.300Z,24.20
2018-05-10T06:13:27.258Z,23.90
2018-05-10T06:14:27.214Z,24.50
2018-05-10T06:15:27.185Z,22.80
2018-05-10T06:16:27.130Z,21.60
2018-05-10T06:17:27.088Z,23.60
2018-05-10T06:18:27.048Z,22.50
2018-05-10T06:19:27.005Z,21.70
2018-05-10T06:20:26.964Z,21.50
2018-05-10T06:21:26.927Z,20.10
2018-05-10T06:22:26.886Z,19.70
2018-05-10T06:23:26.843Z,19.90
2018-05-10T06:24:26.803Z,19.90
2018-05-10T06:25:26.758Z,20.70
2018-05-10T06:26:26.716Z,20.20
2018-05-10T06:27:26.677Z,19.30
2018-05-10T06:28:26.634Z,20.10
2018-05-10T06:29:26.591Z,20.10
2018-05-10T06:30:26.551Z,19.20
2018-05-10T06:31:26.509Z,19.00
2018-05-10T06:32:26.471Z,19.10
2018-05-10T06:33:26.429Z,19.50
2018-05-10T06:34:26.383Z,20.30
2018-05-10T06:35:26.342Z,19.90
2018-05-10T06:36:26.302Z,19.40
2018-05-10T06:37:26.259Z,19.80
2018-05-10T06:38:26.220Z,19.50
2018-05-10T06:39:26.178Z,19.70
2018-05-10T06:40:26.134Z,19.90
2018-05-10T06:41:26.113Z,18.50
2018-05-10T06:42:26.059Z,19.20
2018-05-10T06:43:26.012Z,19.30
2018-05-10T06:44:25.970Z,18.60
2018-05-10T06:45:25.930Z,18.40
2018-05-10T06:46:25.891Z,18.60
2018-05-10T06:47:25.847Z,17.50
2018-05-10T06:48:25.805Z,16.70
2018-05-10T06:49:25.767Z,17.10
2018-05-10T06:50:25.725Z,17.00
2018-05-10T06:51:25.683Z,16.20
2018-05-10T06:52:25.643Z,16.60
2018-05-10T06:53:25.597Z,16.70
2018-05-10T06:54:25.574Z,16.30
2018-05-10T06:55:25.518Z,15.20
2018-05-10T06:56:25.476Z,15.30
2018-05-10T06:57:25.434Z,14.20
2018-05-10T06:58:25.396Z,14.60
2018-05-10T06:59:25.353Z,13.60
2018-05-10T07:00:25.311Z,13.50
2018-05-10T07:01:25.270Z,13.60
2018-05-10T07:02:25.230Z,13.20
2018-05-10T07:03:25.194Z,13.60
2018-05-10T07:04:25.164Z,13.10
2018-05-10T07:05:25.108Z,13.30
2018-05-10T07:06:25.073Z,13.30
2018-05-10T07:07:25.028Z,12.40
2018-05-10T07:08:24.983Z,12.90
2018-05-10T07:09:25.164Z,12.30
2018-05-10T07:10:24.908Z,11.90
2018-05-10T07:11:24.865Z,11.80
2018-05-10T07:12:24.823Z,12.40
2018-05-10T07:13:24.783Z,11.00
2018-05-10T07:14:24.745Z,11.40
2018-05-10T07:15:24.698Z,11.90
2018-05-10T07:16:24.662Z,11.20
2018-05-10T07:17:24.619Z,10.90
2018-05-10T07:18:24.580Z,11.00
2018-05-10T07:19:24.539Z,11.60
2018-05-10T07:20:24.496Z,12.00
2018-05-10T07:21:24.457Z,12.20
2018-05-10T07:22:24.416Z,11.70
2018-05-10T07:23:24.379Z,11.60
2018-05-10T07:24:24.337Z,11.60
2018-05-10T07:25:24.367Z,11.10
2018-05-10T07:26:24.259Z,11.40
2018-05-10T07:27:24.214Z,11.30
2018-05-10T07:28:24.174Z,11.00
2018-05-10T07:29:24.138Z,11.60
2018-05-10T07:30:24.093Z,10.60
2018-05-10T07:31:24.056Z,9.80
2018-05-10T07:32:24.016Z,10.80
2018-05-10T07:33:23.974Z,9.50
2018-05-10T07:34:23.934Z,9.20
2018-05-10T07:35:23.891Z,8.90
2018-05-10T07:36:23.849Z,9.10
2018-05-10T07:37:23.811Z,9.10
2018-05-10T07:38:23.769Z,9.10
2018-05-10T07:39:23.731Z,8.50
2018-05-10T07:40:23.693Z,9.10
2018-05-10T07:41:23.653Z,9.80
2018-05-10T07:42:23.610Z,9.80
2018-05-10T07:43:23.570Z,10.20
2018-05-10T07:44:23.531Z,9.80
2018-05-10T07:45:23.493Z,11.10
2018-05-10T07:46:23.458Z,9.60
2018-05-10T07:47:23.498Z,10.30
2018-05-10T07:48:23.368Z,10.10
2018-05-10T07:49:23.334Z,10.00
2018-05-10T07:50:23.292Z,10.60
2018-05-10T07:51:23.249Z,10.00
2018-05-10T07:52:23.212Z,9.60
2018-05-10T07:53:23.175Z,9.20
2018-05-10T07:54:23.133Z,9.40
2018-05-10T07:55:23.093Z,9.80
2018-05-10T07:56:23.055Z,9.70
2018-05-10T07:57:23.013Z,9.00
2018-05-10T07:58:22.977Z,8.80
2018-05-10T07:59:22.933Z,8.50
2018-05-10T08:00:22.896Z,9.00
2018-05-10T08:01:22.914Z,8.90
2018-05-10T08:02:22.827Z,9.50
2018-05-10T08:03:22.792Z,8.80
2018-05-10T08:04:22.734Z,9.60
2018-05-10T08:05:22.700Z,8.50
2018-05-10T08:06:22.675Z,9.00
2018-05-10T08:07:22.617Z,8.70
2018-05-10T08:08:22.582Z,8.90
2018-05-10T08:09:22.538Z,9.70
2018-05-10T08:10:22.506Z,9.70
2018-05-10T08:11:22.466Z,9.70
2018-05-10T08:12:22.436Z,9.40
2018-05-10T08:13:22.383Z,9.70
2018-05-10T08:14:22.349Z,9.70
2018-05-10T08:15:22.303Z,9.00
2018-05-10T08:16:22.266Z,8.40
2018-05-10T08:17:22.233Z,8.90
2018-05-10T08:18:22.184Z,8.50
2018-05-10T08:19:22.152Z,8.70
2018-05-10T08:20:22.110Z,8.50
2018-05-10T08:21:22.643Z,8.30
2018-05-10T08:22:22.913Z,9.10
2018-05-10T08:23:21.985Z,8.50
2018-05-10T08:24:22.287Z,8.80
2018-05-10T08:25:22.007Z,8.20
2018-05-10T08:26:22.079Z,9.50
2018-05-10T08:27:22.101Z,7.80
2018-05-10T08:28:21.959Z,8.90
2018-05-10T08:29:21.753Z,8.90
2018-05-10T08:30:21.790Z,9.10
2018-05-10T08:31:21.873Z,8.90
2018-05-10T08:32:21.736Z,8.80
2018-05-10T08:33:21.596Z,9.00
2018-05-10T08:34:21.556Z,9.30
2018-05-10T08:35:21.516Z,9.60
2018-05-10T08:36:21.477Z,9.00
2018-05-10T08:37:21.439Z,9.20
2018-05-10T08:38:21.405Z,8.90
2018-05-10T08:39:21.564Z,9.50
2018-05-10T08:40:21.606Z,9.40
2018-05-10T08:41:21.341Z,9.00
2018-05-10T08:42:21.243Z,8.90
2018-05-10T08:43:21.203Z,9.00
2018-05-10T08:44:21.166Z,9.00
2018-05-10T08:45:21.126Z,8.60
2018-05-10T08:46:21.085Z,8.80
2018-05-10T08:47:21.045Z,9.20
2018-05-10T08:48:21.014Z,9.20
2018-05-10T08:49:20.971Z,9.50
2018-05-10T08:50:20.935Z,9.50
2018-05-10T08:51:20.955Z,9.60
2018-05-10T08:52:20.853Z,9.60
2018-05-10T08:53:20.810Z,9.50
2018-05-10T08:54:20.782Z,9.50
2018-05-10T08:55:20.730Z,10.50
2018-05-10T08:56:20.690Z,9.10
2018-05-10T08:57:20.651Z,9.50
2018-05-10T08:58:20.611Z,10.10
2018-05-10T08:59:20.571Z,10.20
2018-05-10T09:00:20.533Z,10.60
2018-05-10T09:01:20.495Z,10.90
2018-05-10T09:02:20.467Z,11.30
2018-05-10T09:03:20.414Z,11.50
2018-05-10T09:04:20.377Z,11.40
2018-05-10T09:05:20.348Z,10.50
2018-05-10T09:06:20.298Z,10.60
2018-05-10T09:07:20.290Z,9.90
2018-05-10T09:08:20.217Z,9.80
2018-05-10T09:09:20.180Z,8.70
2018-05-10T09:10:20.140Z,8.60
2018-05-10T09:11:20.100Z,8.50
2018-05-10T09:12:20.060Z,8.70
2018-05-10T09:13:20.021Z,7.90
2018-05-10T09:14:19.984Z,8.10
2018-05-10T09:15:19.943Z,8.00
2018-05-10T09:16:19.906Z,7.40
2018-05-10T09:17:19.871Z,7.70
2018-05-10T09:18:19.828Z,8.10
2018-05-10T09:19:19.785Z,7.90
2018-05-10T09:20:19.824Z,7.90
2018-05-10T09:21:19.705Z,7.70
2018-05-10T09:22:19.664Z,7.30
2018-05-10T09:23:19.625Z,7.60
2018-05-10T09:24:19.586Z,6.80
2018-05-10T09:25:19.551Z,6.60
2018-05-10T09:26:19.516Z,6.10
2018-05-10T09:27:19.468Z,5.90
2018-05-10T09:28:19.429Z,4.80
2018-05-10T09:29:19.410Z,4.70
2018-05-10T09:30:19.352Z,4.50
2018-05-10T09:31:19.312Z,4.20
2018-05-10T09:32:19.271Z,4.00
2018-05-10T09:33:19.235Z,4.20
2018-05-10T09:34:19.195Z,3.90
2018-05-10T09:35:19.153Z,3.90
2018-05-10T09:36:19.115Z,4.10
2018-05-10T09:37:19.093Z,3.80
2018-05-10T09:38:19.036Z,3.80
2018-05-10T09:39:19.102Z,3.90
2018-05-10T09:40:18.957Z,3.60
2018-05-10T09:41:18.926Z,4.00
2018-05-10T09:42:18.880Z,3.50
2018-05-10T09:43:18.839Z,3.70
2018-05-10T09:44:18.805Z,3.60
2018-05-10T09:45:18.762Z,3.40
2018-05-10T09:46:18.784Z,3.30
2018-05-10T09:47:18.684Z,3.50
2018-05-10T09:48:18.645Z,4.40
2018-05-10T09:49:18.607Z,4.30
2018-05-10T09:50:18.573Z,4.40
2018-05-10T09:51:18.527Z,4.50
2018-05-10T09:52:18.496Z,5.00
2018-05-10T09:53:18.453Z,4.80
2018-05-10T09:54:18.425Z,5.20
2018-05-10T09:55:18.375Z,4.70
2018-05-10T09:56:18.381Z,5.60
2018-05-10T09:57:18.319Z,5.20
2018-05-10T09:58:18.263Z,5.70
2018-05-10T09:59:18.220Z,5.50
2018-05-10T10:00:18.201Z,5.90
2018-05-10T10:01:18.149Z,5.30
2018-05-10T10:02:18.122Z,5.70
2018-05-10T10:03:18.070Z,5.10
2018-05-10T10:04:18.031Z,5.30
2018-05-10T10:05:17.992Z,4.80
2018-05-10T10:06:18.063Z,5.30
2018-05-10T10:07:17.916Z,5.20
2018-05-10T10:08:17.882Z,4.90
2018-05-10T10:09:17.842Z,4.90
2018-05-10T10:10:17.807Z,5.10
2018-05-10T10:11:17.765Z,4.50
2018-05-10T10:12:17.729Z,4.10
2018-05-10T10:13:17.692Z,3.70
2018-05-10T10:14:17.653Z,3.30
2018-05-10T10:15:17.616Z,3.60
2018-05-10T10:16:17.577Z,3.20
2018-05-10T10:17:17.544Z,2.50
2018-05-10T10:18:17.505Z,3.00
2018-05-10T10:19:17.466Z,2.70
2018-05-10T10:20:17.427Z,2.60
2018-05-10T10:21:17.390Z,2.60
2018-05-10T10:22:17.357Z,2.60
2018-05-10T10:23:17.316Z,2.40
2018-05-10T10:24:17.276Z,1.80
2018-05-10T10:25:17.317Z,1.60
2018-05-10T10:26:17.202Z,1.60
2018-05-10T10:27:17.179Z,1.90
2018-05-10T10:28:17.128Z,1.90
2018-05-10T10:29:17.090Z,1.80
2018-05-10T10:30:17.054Z,2.20
2018-05-10T10:31:17.017Z,2.10
2018-05-10T10:32:16.994Z,2.40
2018-05-10T10:33:16.939Z,2.40
2018-05-10T10:34:16.898Z,2.60
2018-05-10T10:35:16.944Z,2.50
2018-05-10T10:36:16.824Z,2.60
2018-05-10T10:37:16.787Z,2.40
2018-05-10T10:38:16.857Z,2.90
2018-05-10T10:39:16.708Z,3.00
2018-05-10T10:40:16.720Z,10.10
2018-05-10T10:41:16.632Z,6.20
2018-05-10T10:42:16.597Z,5.60
2018-05-10T10:43:16.554Z,4.30
2018-05-10T10:44:16.515Z,4.30
2018-05-10T10:45:16.476Z,3.40
2018-05-10T10:46:16.438Z,3.40
2018-05-10T10:47:16.454Z,3.80
2018-05-10T10:48:16.359Z,3.30
2018-05-10T10:49:16.328Z,7.70
2018-05-10T10:50:16.282Z,32.80
2018-05-10T10:51:16.243Z,40.60
2018-05-10T10:52:16.204Z,29.10
2018-05-10T10:53:16.167Z,27.20
2018-05-10T10:54:16.131Z,5.80
2018-05-10T10:55:16.091Z,29.90
2018-05-10T10:56:16.050Z,55.90
2018-05-10T10:57:16.014Z,27.20
2018-05-10T10:58:15.969Z,48.80
2018-05-10T10:59:15.936Z,13.90
2018-05-10T11:00:15.896Z,6.20
2018-05-10T11:01:15.864Z,5.80
2018-05-10T11:02:15.819Z,9.30
2018-05-10T11:03:15.777Z,23.80
2018-05-10T11:04:15.743Z,15.00
2018-05-10T11:05:15.700Z,36.00
2018-05-10T11:06:15.659Z,17.20
2018-05-10T11:07:15.623Z,10.80
2018-05-10T11:08:15.579Z,10.20
2018-05-10T11:09:15.575Z,11.10
2018-05-10T11:10:15.509Z,7.10
2018-05-10T11:11:15.464Z,6.70
2018-05-10T11:12:15.426Z,6.90
2018-05-10T11:13:15.391Z,6.50
2018-05-10T11:14:15.350Z,7.30
2018-05-10T11:15:15.308Z,7.50
2018-05-10T11:16:15.271Z,7.60
2018-05-10T11:17:15.232Z,7.40
2018-05-10T11:18:15.207Z,8.10
2018-05-10T11:19:15.156Z,9.30
2018-05-10T11:20:15.114Z,9.20
2018-05-10T11:21:15.376Z,8.90
2018-05-10T11:22:15.038Z,10.20
2018-05-10T11:23:14.995Z,10.90
2018-05-10T11:24:14.960Z,11.20
2018-05-10T11:25:14.919Z,10.80
2018-05-10T11:26:14.879Z,11.40
2018-05-10T11:27:14.884Z,11.60
2018-05-10T11:28:14.808Z,12.80
2018-05-10T11:29:14.766Z,15.00
2018-05-10T11:30:14.727Z,15.10
2018-05-10T11:31:14.684Z,13.30
2018-05-10T11:32:14.751Z,13.00
2018-05-10T11:33:14.767Z,12.30
2018-05-10T11:34:14.760Z,12.80
2018-05-10T11:35:16.342Z,14.50
2018-05-10T11:36:14.716Z,13.20
2018-05-10T11:37:14.632Z,13.80
2018-05-10T11:38:14.411Z,13.80
2018-05-10T11:39:14.374Z,14.80
2018-05-10T11:40:14.338Z,15.10
2018-05-10T11:41:14.298Z,15.80
2018-05-10T11:42:14.256Z,15.60
2018-05-10T11:43:14.252Z,15.30
2018-05-10T11:44:14.179Z,15.80
2018-05-10T11:45:14.147Z,15.50
2018-05-10T11:46:14.171Z,15.40
2018-05-10T11:47:14.807Z,16.20
2018-05-10T11:48:14.031Z,17.60
2018-05-10T11:49:13.984Z,17.20
2018-05-10T11:50:13.957Z,17.70
2018-05-10T11:51:13.906Z,19.00
2018-05-10T11:52:13.864Z,19.40
2018-05-10T11:53:13.922Z,19.90
2018-05-10T11:54:13.789Z,20.60
2018-05-10T11:55:13.836Z,19.70
2018-05-10T11:56:13.750Z,19.60
2018-05-10T11:57:13.743Z,21.00
2018-05-10T11:58:13.771Z,21.20
2018-05-10T11:59:13.791Z,23.30
2018-05-10T12:00:13.561Z,22.40
2018-05-10T12:01:13.510Z,22.00
2018-05-10T12:02:13.469Z,23.20
2018-05-10T12:03:13.570Z,22.50
2018-05-10T12:04:13.390Z,24.20
2018-05-10T12:05:13.347Z,23.70
2018-05-10T12:06:13.646Z,23.90
2018-05-10T12:07:13.434Z,24.30
2018-05-10T12:08:13.230Z,23.90
2018-05-10T12:09:13.186Z,23.30
2018-05-10T12:10:13.252Z,23.00
2018-05-10T12:11:13.104Z,30.60
2018-05-10T12:12:13.080Z,28.60
2018-05-10T12:13:13.024Z,29.20
2018-05-10T12:14:12.988Z,30.20
2018-05-10T12:15:12.944Z,33.10
2018-05-10T12:16:12.907Z,34.90
2018-05-10T12:17:12.871Z,37.50
2018-05-10T12:18:12.828Z,37.90
2018-05-10T12:19:12.867Z,44.10
2018-05-10T12:20:12.743Z,52.00
2018-05-10T12:21:12.706Z,36.60
2018-05-10T12:22:12.663Z,32.90
2018-05-10T12:23:12.622Z,31.70
2018-05-10T12:24:12.581Z,31.80
2018-05-10T12:25:12.541Z,29.10
2018-05-10T12:26:12.650Z,26.30
2018-05-10T12:27:12.622Z,24.60
2018-05-10T12:28:12.535Z,25.80
2018-05-10T12:29:12.850Z,23.60
2018-05-10T12:30:12.341Z,23.30
2018-05-10T12:31:12.296Z,24.60
2018-05-10T12:32:12.312Z,22.80
2018-05-10T12:33:12.214Z,24.00
2018-05-10T12:34:12.182Z,23.60
2018-05-10T12:35:12.140Z,24.10
2018-05-10T12:36:12.097Z,23.80
2018-05-10T12:37:12.055Z,25.50
2018-05-10T12:38:12.017Z,23.50
2018-05-10T12:39:11.973Z,24.20
2018-05-10T12:40:11.933Z,23.50
2018-05-10T12:41:11.892Z,24.70
2018-05-10T12:42:11.850Z,26.00
2018-05-10T12:43:11.812Z,25.90
2018-05-10T12:44:11.767Z,25.20
2018-05-10T12:45:11.727Z,25.80
2018-05-10T12:46:11.687Z,27.20
2018-05-10T12:47:11.648Z,25.10
2018-05-10T12:48:11.615Z,26.50
2018-05-10T12:49:11.566Z,25.30
2018-05-10T12:50:11.527Z,24.70
2018-05-10T12:51:11.489Z,24.00
2018-05-10T12:52:11.441Z,23.40
2018-05-10T12:53:11.409Z,24.50
2018-05-10T12:54:11.369Z,24.20
2018-05-10T12:55:11.319Z,23.70
2018-05-10T12:56:11.394Z,23.30
2018-05-10T12:57:11.239Z,23.90
2018-05-10T12:58:11.197Z,22.30
2018-05-10T12:59:11.161Z,23.50